Time;durP1;ratioP1;P1;durP2;ratioP2;P2;SDS_P1;SDS_P2;PMS_P1;PMS_P2;Temp;Humidity;BMP_temperature;BMP_pressure;BME280_temperature;BME280_humidity;BME280_pressure;Samples;Min_cycle;Max_cycle;Signal;HPM_P1;HPM_P2
2022/06/27 00:00:08;;;;;;;3.72;2.78;;;;;;;18.07;69.22;99860.13;5056366;28;20040;-56
2022/06/27 00:02:53;;;;;;;5.15;2.88;;;;;;;18.05;69.44;99852.31;5056176;28;20166;-56
2022/06/27 00:05:37;;;;;;;5.85;3.15;;;;;;;18.06;69.46;99854.00;5056422;28;20083;-55
2022/06/27 00:08:22;;;;;;;5.18;3.20;;;;;;;18.06;69.42;99846.13;5056322;28;20055;-55
2022/06/27 00:11:06;;;;;;;6.65;3.40;;;;;;;18.06;69.53;99855.78;5056252;28;20098;-55
2022/06/27 00:13:50;;;;;;;3.97;3.22;;;;;;;18.07;69.69;99862.75;5056192;28;20044;-55
2022/06/27 00:16:34;;;;;;;8.32;3.67;;;;;;;18.06;69.44;99861.88;5056470;28;20132;-55
2022/06/27 00:19:18;;;;;;;4.53;2.75;;;;;;;18.08;69.42;99873.19;5040675;28;20120;-55
2022/06/27 00:22:04;;;;;;;6.00;3.30;;;;;;;18.07;69.98;99865.38;5056092;28;20147;-56
2022/06/27 00:24:48;;;;;;;5.18;3.03;;;;;;;18.06;69.60;99874.97;5056027;28;20048;-55
2022/06/27 00:27:32;;;;;;;5.05;3.25;;;;;;;18.06;69.81;99856.63;5055901;28;20416;-55
2022/06/27 00:30:16;;;;;;;4.95;3.15;;;;;;;18.06;69.72;99863.63;5056042;28;20086;-55
2022/06/27 00:33:00;;;;;;;;;;;;;;;18.04;69.72;99870.66;5056062;28;20095;-56
2022/06/27 00:35:44;;;;;;;6.30;3.30;;;;;;;18.03;69.76;99859.31;5056091;28;19919;-56
2022/06/27 00:38:28;;;;;;;5.72;3.40;;;;;;;18.04;69.74;99852.31;5056232;28;20052;-57
2022/06/27 00:41:12;;;;;;;6.55;3.30;;;;;;;18.03;69.70;99850.56;5040761;28;20103;-56
2022/06/27 00:43:56;;;;;;;5.78;3.53;;;;;;;18.03;69.84;99856.69;5055358;28;20115;-56
2022/06/27 00:46:39;;;;;;;7.97;2.67;;;;;;;18.04;69.79;99862.78;5055640;28;20048;-56
2022/06/27 00:49:23;;;;;;;3.35;2.67;;;;;;;18.03;69.79;99863.69;5055753;28;20048;-56
2022/06/27 00:52:10;;;;;;;4.55;2.95;;;;;;;18.04;70.10;99862.78;5055537;28;20036;-56
2022/06/27 00:54:55;;;;;;;4.75;3.22;;;;;;;18.03;70.02;99854.09;5040688;28;20122;-57
2022/06/27 00:57:40;;;;;;;4.65;3.22;;;;;;;18.02;69.79;99854.09;5040272;28;20040;-56
2022/06/27 01:00:24;;;;;;;5.13;3.83;;;;;;;18.02;70.14;99856.72;5040475;28;20067;-56
2022/06/27 01:03:08;;;;;;;6.70;3.33;;;;;;;18.02;69.95;99862.84;5055285;28;20456;-56
2022/06/27 01:05:52;;;;;;;5.25;3.60;;;;;;;18.02;70.14;99862.84;5055367;28;20044;-56
2022/06/27 01:08:36;;;;;;;6.75;3.50;;;;;;;18.02;70.03;99862.84;5055044;28;20063;-56
2022/06/27 01:11:21;;;;;;;6.38;2.80;;;;;;;18.03;69.98;99864.56;5039935;28;20040;-56
2022/06/27 01:14:05;;;;;;;8.10;3.20;;;;;;;18.02;69.81;99859.34;5054842;28;20102;-57
2022/06/27 01:16:49;;;;;;;6.05;3.80;;;;;;;18.01;69.85;99854.97;5054503;28;20122;-57
2022/06/27 01:19:34;;;;;;;5.47;3.50;;;;;;;18.01;69.70;99848.00;5039849;28;20111;-57
2022/06/27 01:22:19;;;;;;;5.15;3.97;;;;;;;18.00;69.99;99845.38;5054919;28;20056;-56
2022/06/27 01:25:05;;;;;;;8.63;3.78;;;;;;;18.00;69.99;99854.13;5039856;28;20477;-56
2022/06/27 01:27:49;;;;;;;5.63;4.05;;;;;;;18.00;69.88;99842.75;5039780;28;20134;-56
2022/06/27 01:30:33;;;;;;;6.15;4.00;;;;;;;18.00;69.98;99834.91;5054512;28;20051;-55
2022/06/27 01:33:17;;;;;;;5.18;4.20;;;;;;;18.00;70.45;99835.78;5055025;28;20086;-57
2022/06/27 01:36:49;;;;;;;4.82;3.85;;;;;;;18.01;70.07;99836.63;5054013;28;20114;-56
2022/06/27 01:39:19;;;;;;;4.80;3.30;;;;;;;17.99;69.91;99828.81;5050960;28;20060;-57
2022/06/27 01:42:04;;;;;;;6.65;3.85;;;;;;;18.00;69.92;99820.03;5039136;28;20048;-57
2022/06/27 01:44:48;;;;;;;8.25;4.60;;;;;;;18.00;70.20;99827.91;5039245;28;20047;-57
2022/06/27 01:47:32;;;;;;;6.60;4.72;;;;;;;17.99;70.05;99833.16;5039206;28;20119;-56
2022/06/27 01:50:19;;;;;;;4.43;3.50;;;;;;;18.00;69.91;99827.03;5054488;28;20205;-56
2022/06/27 01:53:03;;;;;;;8.32;4.40;;;;;;;18.01;70.00;99819.16;5039603;28;20059;-56
2022/06/27 01:55:47;;;;;;;10.32;5.55;;;;;;;18.01;70.06;99826.13;5054108;28;20067;-57
2022/06/27 01:58:31;;;;;;;;;;;;;;;17.99;70.22;99814.81;5039440;28;20123;-56
2022/06/27 02:01:15;;;;;;;6.13;4.63;;;;;;;17.98;70.31;99808.72;5054164;28;20447;-57
2022/06/27 02:04:00;;;;;;;6.07;4.80;;;;;;;17.97;70.24;99796.47;5053917;28;20044;-57
2022/06/27 02:06:45;;;;;;;8.50;4.60;;;;;;;17.98;70.38;99793.00;5053651;28;20098;-56
2022/06/27 02:09:30;;;;;;;6.07;4.90;;;;;;;17.98;70.28;99792.13;5039269;28;20052;-57
2022/06/27 02:12:22;;;;;;;8.15;4.53;;;;;;;17.99;70.22;99791.22;5054279;28;20167;-60
2022/06/27 02:15:07;;;;;;;4.90;4.03;;;;;;;17.98;70.43;99784.28;5039196;28;20052;-57
2022/06/27 02:17:51;;;;;;;6.28;4.88;;;;;;;17.99;70.03;99785.97;5053799;28;20071;-56
2022/06/27 02:20:36;;;;;;;6.75;4.70;;;;;;;17.99;70.38;99780.72;5053965;28;20051;-58
2022/06/27 02:23:20;;;;;;;6.32;4.47;;;;;;;17.99;70.49;99785.97;5053915;28;20055;-56
2022/06/27 02:26:07;;;;;;;7.85;4.55;;;;;;;17.98;70.27;99779.03;5053823;28;20132;-56
2022/06/27 02:28:53;;;;;;;7.28;4.68;;;;;;;17.99;70.37;99788.59;5038866;28;20106;-56
2022/06/27 02:31:50;;;;;;;8.13;5.25;;;;;;;17.98;70.34;99785.13;5039031;28;20158;-56
2022/06/27 02:34:37;;;;;;;8.18;5.60;;;;;;;17.96;70.46;99792.13;5038815;28;20098;-55
2022/06/27 02:37:20;;;;;;;8.77;4.78;;;;;;;17.95;70.38;99788.63;5038502;28;20400;-56
2022/06/27 02:40:05;;;;;;;7.55;5.00;;;;;;;17.96;70.23;99779.88;5053677;28;20404;-55
2022/06/27 02:42:53;;;;;;;5.60;4.57;;;;;;;17.96;70.45;99771.13;5038644;28;20044;-55
2022/06/27 02:45:38;;;;;;;7.93;5.10;;;;;;;17.96;70.53;99756.28;5038650;28;20549;-55
2022/06/27 02:48:23;;;;;;;6.95;5.65;;;;;;;17.95;70.43;99765.03;5052563;28;20079;-57
2022/06/27 02:51:14;;;;;;;7.07;5.07;;;;;;;17.95;70.55;99766.78;5038295;28;20052;-57
2022/06/27 02:54:07;;;;;;;5.85;4.90;;;;;;;17.95;70.43;99767.66;5038321;28;20055;-56
2022/06/27 02:57:17;;;;;;;7.80;5.00;;;;;;;17.94;70.50;99758.06;5038749;28;20515;-55
2022/06/27 03:00:02;;;;;;;7.93;5.32;;;;;;;17.94;70.42;99771.19;5016135;28;20055;-55
2022/06/27 03:02:46;;;;;;;8.52;5.35;;;;;;;17.92;70.68;99774.69;5038063;28;20119;-57
2022/06/27 03:05:30;;;;;;;9.30;5.40;;;;;;;17.94;70.45;99775.53;5038658;28;20558;-57
2022/06/27 03:08:14;;;;;;;8.40;5.78;;;;;;;17.91;70.48;99775.59;5038179;28;20094;-55
2022/06/27 03:10:58;;;;;;;7.63;5.50;;;;;;;17.91;70.59;99784.34;5052747;28;20573;-55
2022/06/27 03:13:43;;;;;;;8.57;5.85;;;;;;;17.90;70.54;99784.38;5038249;28;20048;-57
2022/06/27 03:16:27;;;;;;;7.28;5.50;;;;;;;17.90;70.51;99795.72;5037841;28;20056;-56
2022/06/27 03:19:12;;;;;;;9.75;5.95;;;;;;;17.90;70.16;99795.72;5052914;28;20060;-57
2022/06/27 03:21:56;;;;;;;11.38;5.55;;;;;;;17.90;70.52;99803.56;5038359;28;20092;-56
2022/06/27 03:24:40;;;;;;;8.82;5.13;;;;;;;17.88;70.67;99787.00;5052940;28;20514;-55
2022/06/27 03:27:24;;;;;;;9.15;5.47;;;;;;;17.88;70.40;99805.34;5052986;28;20535;-55
2022/06/27 03:30:08;;;;;;;9.50;6.10;;;;;;;17.88;70.59;99807.13;5053406;28;20130;-56
2022/06/27 03:32:52;;;;;;;13.27;5.93;;;;;;;17.88;70.57;99799.28;5052705;28;20122;-55
2022/06/27 03:35:36;;;;;;;9.55;5.65;;;;;;;17.88;70.66;99784.38;5053353;28;20114;-56
2022/06/27 03:38:20;;;;;;;10.15;5.45;;;;;;;17.88;70.42;99773.06;5052763;28;20098;-57
2022/06/27 03:41:03;;;;;;;8.75;5.47;;;;;;;17.86;70.55;99767.81;5037812;28;20512;-57
2022/06/27 03:43:47;;;;;;;7.57;5.20;;;;;;;17.84;70.66;99780.09;5052903;28;20063;-57
2022/06/27 03:46:31;;;;;;;9.57;5.65;;;;;;;17.83;70.51;99778.34;5037617;28;20072;-56
2022/06/27 03:52:18;;;;;;;9.70;5.63;;;;;;;17.83;70.50;99756.53;5052501;28;20411;-57
2022/06/27 03:55:02;;;;;;;11.15;5.72;;;;;;;17.84;70.51;99755.66;5052928;28;20056;-57
2022/06/27 03:57:50;;;;;;;;;;;;;;;17.82;70.37;99768.78;5052828;28;20526;-57
2022/06/27 04:00:35;;;;;;;6.90;5.07;;;;;;;17.82;70.58;99789.75;5056504;28;19939;-55
2022/06/27 04:03:19;;;;;;;7.28;5.18;;;;;;;17.82;70.75;99795.00;5056521;28;20055;-56
2022/06/27 04:06:03;;;;;;;7.28;5.03;;;;;;;17.80;70.68;99781.91;5056145;28;20523;-55
2022/06/27 04:08:47;;;;;;;7.03;5.50;;;;;;;17.81;70.65;99774.94;5056555;28;20047;-55
2022/06/27 04:11:30;;;;;;;11.43;5.13;;;;;;;17.81;70.44;99774.94;5056357;28;20044;-55
2022/06/27 04:14:14;;;;;;;9.68;5.07;;;;;;;17.81;70.66;99774.94;5055810;28;20048;-55
2022/06/27 04:16:58;;;;;;;8.73;5.90;;;;;;;17.81;70.67;99780.16;5041161;28;20067;-57
2022/06/27 04:19:43;;;;;;;6.72;5.57;;;;;;;17.81;70.74;99777.53;5041142;28;20107;-55
2022/06/27 04:22:28;;;;;;;6.10;5.00;;;;;;;17.80;70.67;99766.19;5056007;28;20455;-55
2022/06/27 04:25:13;;;;;;;10.70;5.07;;;;;;;17.81;70.67;99764.44;5056401;28;20553;-56
2022/06/27 04:27:57;;;;;;;5.15;4.55;;;;;;;17.79;70.66;99753.97;5055774;28;20051;-55
2022/06/27 04:30:41;;;;;;;16.33;5.50;;;;;;;17.79;70.74;99747.88;5056088;28;20048;-56
2022/06/27 04:33:25;;;;;;;13.85;4.97;;;;;;;17.80;70.70;99757.47;5055679;28;20411;-55
2022/06/27 04:36:09;;;;;;;9.07;5.70;;;;;;;17.80;70.62;99753.06;5055899;28;20102;-55
2022/06/27 04:38:53;;;;;;;6.03;5.00;;;;;;;17.79;70.77;99738.25;5040166;28;20043;-55
2022/06/27 04:41:37;;;;;;;7.00;5.53;;;;;;;17.80;70.72;99741.75;5055555;28;20052;-56
2022/06/27 04:44:22;;;;;;;7.80;5.07;;;;;;;17.80;70.63;99732.09;5055557;28;20397;-56
2022/06/27 04:47:08;;;;;;;10.27;5.32;;;;;;;17.78;70.69;99722.56;5040904;28;20126;-56
2022/06/27 04:49:52;;;;;;;8.85;5.70;;;;;;;17.79;70.76;99719.03;5040694;28;20199;-55
2022/06/27 04:52:40;;;;;;;7.80;5.15;;;;;;;17.78;70.99;99706.84;5055404;28;20431;-55
2022/06/27 04:55:24;;;;;;;7.40;5.22;;;;;;;17.78;70.64;99712.91;5040700;28;20179;-57
2022/06/27 04:58:08;;;;;;;9.25;5.15;;;;;;;17.78;70.82;99719.94;5040482;28;20052;-56
2022/06/27 05:00:54;;;;;;;7.80;4.57;;;;;;;17.79;70.75;99724.28;5055360;28;20460;-56
2022/06/27 05:03:38;;;;;;;8.48;5.30;;;;;;;17.79;70.57;99721.66;5055416;28;20051;-56
2022/06/27 05:06:22;;;;;;;10.65;4.90;;;;;;;17.78;70.80;99727.78;5040468;28;20095;-57
2022/06/27 05:09:06;;;;;;;9.15;4.90;;;;;;;17.78;70.72;99739.13;5055393;28;20506;-56
2022/06/27 05:11:53;;;;;;;11.38;5.35;;;;;;;17.77;70.48;99731.31;5054402;28;20416;-57
2022/06/27 05:14:37;;;;;;;10.15;5.25;;;;;;;17.78;70.76;99728.66;5040617;28;20072;-57
2022/06/27 05:17:22;;;;;;;9.57;5.30;;;;;;;17.78;70.70;99743.53;5039764;28;20044;-57
2022/06/27 05:20:07;;;;;;;7.72;5.20;;;;;;;17.78;70.94;99774.97;5039824;28;20523;-56
2022/06/27 05:22:52;;;;;;;7.50;5.78;;;;;;;17.77;70.84;99802.91;5040173;28;20415;-56
2022/06/27 05:25:36;;;;;;;8.40;4.82;;;;;;;17.76;70.77;99824.78;5054987;28;20482;-55
2022/06/27 05:28:19;;;;;;;17.73;5.85;;;;;;;17.76;70.93;99827.41;5055205;28;20107;-56
2022/06/27 05:31:05;;;;;;;8.52;6.00;;;;;;;17.74;70.82;99837.06;5055061;28;20044;-55
2022/06/27 05:33:49;;;;;;;11.43;6.22;;;;;;;17.74;71.04;99841.44;5054689;28;20106;-56
2022/06/27 05:36:33;;;;;;;6.10;5.50;;;;;;;17.74;70.83;99830.94;5054685;28;20098;-55
2022/06/27 05:39:17;;;;;;;7.60;4.47;;;;;;;17.73;70.95;99837.97;5054867;28;20052;-56
2022/06/27 05:42:03;;;;;;;8.05;5.82;;;;;;;17.72;70.94;99836.22;5054737;28;20132;-56
2022/06/27 05:44:48;;;;;;;7.88;4.43;;;;;;;17.74;71.01;99833.56;5039535;28;20531;-55
2022/06/27 05:47:32;;;;;;;11.50;5.72;;;;;;;17.72;70.82;99823.13;5054256;28;20048;-56
2022/06/27 05:50:16;;;;;;;9.38;6.18;;;;;;;17.73;71.13;99844.94;5054614;28;20052;-55
2022/06/27 05:53:01;;;;;;;13.80;5.95;;;;;;;17.72;70.87;99851.06;5054426;28;20055;-55
2022/06/27 05:55:46;;;;;;;7.95;5.10;;;;;;;17.73;70.89;99858.03;5054238;28;20098;-56
2022/06/27 05:58:31;;;;;;;9.25;5.32;;;;;;;17.74;71.07;99865.91;5053786;28;20043;-57
2022/06/27 06:01:16;;;;;;;7.25;5.68;;;;;;;17.74;71.04;99896.47;5054020;28;20044;-58
2022/06/27 06:04:00;;;;;;;9.90;5.55;;;;;;;17.73;70.95;99900.84;5038776;28;20413;-56
2022/06/27 06:06:44;;;;;;;7.47;4.97;;;;;;;17.73;71.15;99889.50;5053967;28;20051;-56
2022/06/27 06:09:29;;;;;;;9.98;5.45;;;;;;;17.73;71.15;99885.13;5053871;28;20052;-57
2022/06/27 06:12:15;;;;;;;9.13;6.07;;;;;;;17.73;71.11;99863.28;5054254;28;20040;-57
2022/06/27 06:15:03;;;;;;;9.88;5.32;;;;;;;17.73;71.11;99842.31;5039159;28;20052;-57
2022/06/27 06:17:47;;;;;;;9.93;4.70;;;;;;;17.74;71.19;99833.56;5053562;28;20051;-56
2022/06/27 06:20:32;;;;;;;8.43;4.85;;;;;;;17.74;71.03;99838.81;5053786;28;20095;-56
2022/06/27 06:23:18;;;;;;;7.88;5.22;;;;;;;17.74;71.18;99857.16;5053932;28;20040;-57
2022/06/27 06:26:02;;;;;;;10.32;4.95;;;;;;;17.73;71.19;99843.19;5053708;28;20056;-57
2022/06/27 06:28:53;;;;;;;9.88;5.10;;;;;;;17.74;71.02;99846.66;5053536;28;20411;-56
2022/06/27 06:31:41;;;;;;;7.05;5.38;;;;;;;17.73;70.89;99869.41;5053246;28;20102;-56
2022/06/27 06:34:27;;;;;;;5.95;4.80;;;;;;;17.73;71.25;99879.00;5038687;28;20087;-57
2022/06/27 06:37:12;;;;;;;7.20;4.80;;;;;;;17.72;71.18;99872.91;5053308;28;20122;-56
2022/06/27 06:39:57;;;;;;;7.75;5.07;;;;;;;17.72;70.98;99840.59;5053388;28;20551;-57
2022/06/27 06:42:41;;;;;;;8.15;4.80;;;;;;;17.72;71.13;99823.13;5038411;28;20585;-57
2022/06/27 06:45:25;;;;;;;8.43;5.05;;;;;;;17.73;71.33;99823.97;5038661;28;20044;-55
2022/06/27 06:48:11;;;;;;;7.05;5.20;;;;;;;17.72;71.17;99838.84;5053837;28;20044;-56
2022/06/27 06:50:55;;;;;;;4.90;4.35;;;;;;;17.71;71.28;99837.13;5053199;28;20095;-55
2022/06/27 06:53:39;;;;;;;8.00;4.93;;;;;;;17.71;71.20;99850.22;5053527;28;20124;-56
2022/06/27 06:56:23;;;;;;;7.32;4.28;;;;;;;17.71;71.14;99852.84;5053428;28;20048;-55
2022/06/27 06:59:08;;;;;;;5.25;4.57;;;;;;;17.71;71.19;99844.09;5053414;28;20124;-57
2022/06/27 07:01:54;;;;;;;6.90;4.43;;;;;;;17.72;71.25;99848.44;5052939;28;20114;-56
2022/06/27 07:04:39;;;;;;;13.48;5.40;;;;;;;17.72;71.34;99844.09;5037814;28;20171;-54
2022/06/27 07:07:25;;;;;;;9.50;4.65;;;;;;;17.71;71.49;99844.09;5053290;28;20616;-57
2022/06/27 07:10:14;;;;;;;7.53;5.28;;;;;;;17.71;71.22;99838.84;5038634;28;20052;-56
2022/06/27 07:12:58;;;;;;;10.07;5.63;;;;;;;17.69;71.28;99831.03;5053167;28;20511;-56
2022/06/27 07:15:45;;;;;;;8.68;4.90;;;;;;;17.71;71.19;99846.72;5053547;28;20573;-55
2022/06/27 07:18:29;;;;;;;9.15;5.35;;;;;;;17.70;71.28;99847.59;5053123;28;20048;-55
2022/06/27 07:21:18;;;;;;;8.38;5.10;;;;;;;17.71;71.33;99844.09;5053087;28;20408;-55
2022/06/27 07:24:05;;;;;;;9.98;5.68;;;;;;;17.70;71.34;99839.75;5038253;28;20555;-57
2022/06/27 07:26:50;;;;;;;6.78;4.85;;;;;;;17.72;71.34;99851.06;5038103;28;20094;-57
2022/06/27 07:29:36;;;;;;;7.68;5.45;;;;;;;17.70;71.49;99861.59;5038014;28;20099;-56
2022/06/27 07:32:21;;;;;;;8.90;5.28;;;;;;;17.72;71.25;99856.31;5052526;28;20087;-57
2022/06/27 07:35:11;;;;;;;10.88;5.35;;;;;;;17.70;71.26;99865.94;5041691;28;20132;-57
2022/06/27 07:37:55;;;;;;;7.90;5.43;;;;;;;17.71;71.21;99884.28;5056841;28;20051;-56
2022/06/27 07:40:39;;;;;;;5.68;4.75;;;;;;;17.70;71.54;99893.03;5041858;28;20126;-57
2022/06/27 07:43:24;;;;;;;9.13;5.20;;;;;;;17.69;71.40;99888.69;5056717;28;20087;-57
2022/06/27 07:46:08;;;;;;;;;;;;;;;17.70;71.28;99897.41;5042511;28;20083;-55
2022/06/27 07:48:52;;;;;;;8.07;5.35;;;;;;;17.69;71.33;99898.28;5056551;28;20338;-55
2022/06/27 07:51:36;;;;;;;5.55;4.78;;;;;;;17.69;71.41;99903.53;5041983;28;20178;-56
2022/06/27 07:54:21;;;;;;;6.80;5.30;;;;;;;17.69;71.09;99900.91;5056443;28;20523;-55
2022/06/27 07:57:05;;;;;;;5.72;4.30;;;;;;;17.70;71.44;99900.03;5056361;28;20086;-55
2022/06/27 07:59:54;;;;;;;6.22;4.90;;;;;;;17.70;71.39;99889.53;5056490;28;20201;-56
2022/06/27 08:02:39;;;;;;;11.07;4.93;;;;;;;17.70;71.40;99897.41;5056457;28;20056;-56
2022/06/27 08:05:24;;;;;;;6.25;4.60;;;;;;;17.70;71.36;99910.50;5041669;28;20512;-55
2022/06/27 08:08:08;;;;;;;8.38;5.25;;;;;;;17.70;71.04;99916.63;5056013;28;20404;-56
2022/06/27 08:10:53;;;;;;;7.70;5.03;;;;;;;17.70;71.28;99918.38;5056224;28;20067;-55
2022/06/27 08:13:38;;;;;;;6.72;4.60;;;;;;;17.70;71.26;99920.97;5041440;28;20137;-55
2022/06/27 08:16:24;;;;;;;8.32;5.32;;;;;;;17.71;71.40;99933.19;5040883;28;20124;-55
2022/06/27 08:19:10;;;;;;;5.63;4.60;;;;;;;17.70;71.39;99931.47;5041155;28;20087;-55
2022/06/27 08:21:54;;;;;;;5.95;4.32;;;;;;;17.71;71.38;99920.09;5041017;28;20044;-56
2022/06/27 08:24:38;;;;;;;5.28;4.65;;;;;;;17.72;71.33;99937.56;5055837;28;20412;-57
2022/06/27 08:27:22;;;;;;;6.20;4.55;;;;;;;17.71;71.43;99931.47;5041475;28;20052;-57
2022/06/27 08:30:09;;;;;;;7.85;5.00;;;;;;;17.71;71.38;99934.09;5056246;28;20194;-56
2022/06/27 08:32:58;;;;;;;6.07;4.82;;;;;;;17.71;71.27;99933.19;5040550;28;20051;-57
2022/06/27 08:35:47;;;;;;;8.73;4.82;;;;;;;17.71;71.36;99948.91;5040724;28;20052;-57
2022/06/27 08:38:40;;;;;;;9.05;4.80;;;;;;;17.71;71.17;99962.91;5040413;28;20094;-56
2022/06/27 08:41:24;;;;;;;8.48;5.22;;;;;;;17.71;71.47;99968.16;5055779;28;20554;-57
2022/06/27 08:44:09;;;;;;;9.60;4.82;;;;;;;17.71;71.29;99962.03;5040617;28;20116;-56
2022/06/27 08:46:54;;;;;;;10.18;4.55;;;;;;;17.72;71.32;99959.41;5040726;28;20171;-56
2022/06/27 08:49:39;;;;;;;8.75;5.20;;;;;;;17.72;71.23;99962.03;5040496;28;20040;-57
2022/06/27 08:52:24;;;;;;;7.22;4.55;;;;;;;17.72;71.42;99954.16;5055923;28;20107;-57
2022/06/27 08:55:09;;;;;;;9.13;4.68;;;;;;;17.74;71.43;99954.13;5055387;28;20086;-57
2022/06/27 08:57:54;;;;;;;8.98;5.05;;;;;;;17.73;71.39;99953.28;5040433;28;20107;-57
2022/06/27 09:00:45;;;;;;;7.47;4.30;;;;;;;17.74;71.49;99970.72;5055343;28;20099;-56
2022/06/27 09:03:29;;;;;;;8.05;4.75;;;;;;;17.73;71.58;99965.50;5055385;28;20122;-56
2022/06/27 09:06:14;;;;;;;8.10;4.55;;;;;;;17.74;71.49;99985.56;5039994;28;20052;-55
2022/06/27 09:09:08;;;;;;;;;;;;;;;17.73;71.40;99991.72;5055358;28;20094;-56
2022/06/27 09:11:54;;;;;;;7.35;4.93;;;;;;;17.72;71.41;99976.88;5040464;28;19923;-56
2022/06/27 09:14:41;;;;;;;8.18;5.05;;;;;;;17.72;71.73;99980.38;5055409;28;20392;-57
2022/06/27 09:17:25;;;;;;;8.65;4.22;;;;;;;17.73;71.31;99974.25;5040238;28;20083;-57
2022/06/27 09:20:10;;;;;;;8.95;5.30;;;;;;;17.73;71.47;99970.75;5054855;28;20540;-57
2022/06/27 09:22:56;;;;;;;8.07;3.80;;;;;;;17.73;71.19;99965.50;5039656;28;20052;-57
2022/06/27 09:25:40;;;;;;;9.63;4.72;;;;;;;17.73;71.59;99955.91;5040037;28;20043;-57
2022/06/27 09:28:37;;;;;;;8.77;4.88;;;;;;;17.73;71.31;99949.78;5054675;28;20068;-57
2022/06/27 09:31:25;;;;;;;6.63;4.72;;;;;;;17.73;71.43;99953.28;5039965;28;20052;-57
2022/06/27 09:34:24;;;;;;;4.70;3.78;;;;;;;17.74;71.38;99954.13;5054903;28;20048;-57
2022/06/27 09:37:09;;;;;;;4.45;3.38;;;;;;;17.74;71.48;99949.78;5039216;28;20094;-56
2022/06/27 09:39:53;;;;;;;7.60;3.83;;;;;;;17.74;71.33;99946.25;5054431;28;20048;-57
2022/06/27 09:42:38;;;;;;;11.00;4.55;;;;;;;17.74;71.15;99947.16;5054756;28;20424;-56
2022/06/27 09:45:24;;;;;;;6.55;3.75;;;;;;;17.75;71.41;99948.00;5039845;28;20554;-55
2022/06/27 09:48:09;;;;;;;7.90;3.70;;;;;;;17.75;71.38;99948.84;5039158;28;20532;-55
2022/06/27 09:50:54;;;;;;;5.70;3.35;;;;;;;17.77;71.42;99948.84;5054602;28;20089;-55
2022/06/27 09:53:40;;;;;;;7.72;3.95;;;;;;;17.77;71.33;99948.84;5054186;28;20048;-55
2022/06/27 09:56:25;;;;;;;9.27;4.25;;;;;;;17.76;71.07;99937.47;5039009;28;20048;-57
2022/06/27 09:59:11;;;;;;;8.13;4.45;;;;;;;17.77;71.17;99940.97;5038844;28;20044;-55
2022/06/27 10:01:57;;;;;;;4.20;3.75;;;;;;;17.75;71.24;99927.88;5033126;28;20577;-55
2022/06/27 10:04:43;;;;;;;6.97;3.67;;;;;;;17.76;71.27;99928.75;5034124;28;20087;-56
2022/06/27 10:07:29;;;;;;;5.63;4.00;;;;;;;17.76;71.16;99928.75;5034223;28;20527;-56
2022/06/27 10:10:13;;;;;;;6.22;4.05;;;;;;;17.77;71.10;99938.34;5034524;28;20045;-56
2022/06/27 10:13:03;;;;;;;9.88;3.72;;;;;;;17.77;71.08;99938.34;5034015;28;20424;-56
2022/06/27 10:15:49;;;;;;;10.75;3.85;;;;;;;17.77;71.13;99943.59;5033101;28;20076;-57
2022/06/27 10:18:53;;;;;;;5.28;3.63;;;;;;;17.77;71.34;99954.09;5033644;28;20111;-56
2022/06/27 10:21:42;;;;;;;4.63;3.47;;;;;;;17.77;71.11;99954.94;5033250;28;20539;-57
2022/06/27 10:24:29;;;;;;;5.78;3.42;;;;;;;17.78;70.81;99961.91;5033011;28;20467;-57
2022/06/27 10:27:29;;;;;;;6.80;4.47;;;;;;;17.78;71.29;99963.69;5032899;28;20459;-56
2022/06/27 10:30:43;;;;;;;6.53;3.78;;;;;;;17.78;71.12;99953.19;5032959;28;20057;-56
2022/06/27 10:33:28;;;;;;;5.63;3.70;;;;;;;17.78;71.10;99955.81;5032626;28;20068;-56
2022/06/27 10:36:15;;;;;;;7.90;3.63;;;;;;;17.79;71.06;99953.16;5032526;28;20072;-56
2022/06/27 10:39:01;;;;;;;5.00;3.40;;;;;;;17.79;70.97;99953.16;5032417;28;20111;-55
2022/06/27 10:41:45;;;;;;;7.97;3.70;;;;;;;17.79;71.05;99945.31;5033997;28;20128;-55
2022/06/27 10:44:31;;;;;;;5.97;3.25;;;;;;;17.80;71.08;99947.03;5033905;28;20111;-57
2022/06/27 10:47:33;;;;;;;5.82;3.63;;;;;;;17.82;71.09;99944.41;5032835;28;20048;-55
2022/06/27 10:50:20;;;;;;;5.40;3.40;;;;;;;17.82;71.13;99949.66;5033120;28;20615;-55
2022/06/27 10:53:19;;;;;;;6.05;3.90;;;;;;;17.82;70.96;99928.69;5032761;28;20067;-55
2022/06/27 10:56:31;;;;;;;7.32;4.25;;;;;;;17.83;70.93;99935.63;5033421;28;20087;-55
2022/06/27 10:59:16;;;;;;;5.93;3.75;;;;;;;17.82;70.92;99933.94;5033400;28;20116;-55
2022/06/27 11:02:09;;;;;;;8.82;3.13;;;;;;;17.82;70.96;99952.28;5039832;28;20072;-55
2022/06/27 11:04:54;;;;;;;7.68;3.60;;;;;;;17.83;71.16;99946.09;5037988;28;20056;-55
2022/06/27 11:07:38;;;;;;;5.55;3.72;;;;;;;17.83;70.87;99956.59;5053272;28;20530;-55
2022/06/27 11:10:22;;;;;;;5.47;3.60;;;;;;;17.84;70.98;99944.38;5057368;28;20543;-57
2022/06/27 11:13:06;;;;;;;7.60;3.60;;;;;;;17.83;71.02;99953.97;5057178;28;20098;-57
2022/06/27 11:15:51;;;;;;;5.63;3.60;;;;;;;17.83;71.00;99953.13;5057659;28;20048;-57
2022/06/27 11:18:51;;;;;;;6.00;3.55;;;;;;;17.83;70.79;99963.59;5057249;28;20102;-57
2022/06/27 11:21:36;;;;;;;6.90;3.75;;;;;;;17.83;70.80;99959.22;5042349;28;20123;-56
2022/06/27 11:24:21;;;;;;;5.05;3.55;;;;;;;17.83;70.93;99951.34;5042088;28;20111;-57
2022/06/27 11:27:04;;;;;;;7.75;3.70;;;;;;;17.83;70.92;99951.34;5057355;28;20044;-57
2022/06/27 11:32:52;;;;;;;9.02;4.30;;;;;;;17.83;70.89;99946.09;5057061;28;20072;-57
2022/06/27 11:35:37;;;;;;;8.77;4.43;;;;;;;17.84;70.77;99947.00;5057217;28;20512;-56
2022/06/27 11:38:27;;;;;;;5.45;3.40;;;;;;;17.84;70.77;99955.72;5041513;28;20416;-57
2022/06/27 11:41:14;;;;;;;8.82;4.03;;;;;;;17.84;70.83;99944.38;5042175;28;20055;-57
2022/06/27 11:44:03;;;;;;;8.02;4.00;;;;;;;17.85;70.84;99940.88;5042043;28;20075;-56
2022/06/27 11:46:49;;;;;;;5.32;3.75;;;;;;;17.85;70.95;99941.72;5042099;28;20570;-55
2022/06/27 11:49:36;;;;;;;9.30;4.05;;;;;;;17.87;70.74;99947.81;5041897;28;20052;-56
2022/06/27 11:52:22;;;;;;;9.88;3.63;;;;;;;17.87;70.92;99962.69;5041896;28;20055;-56
2022/06/27 11:55:15;;;;;;;8.98;3.50;;;;;;;17.88;70.80;99988.84;5041895;28;20454;-55
2022/06/27 11:58:01;;;;;;;9.80;3.65;;;;;;;17.88;71.25;99977.53;5056497;28;20048;-55
2022/06/27 12:00:45;;;;;;;6.63;3.58;;;;;;;17.90;70.81;99970.50;5041806;28;20099;-56
2022/06/27 12:03:29;;;;;;;8.98;4.43;;;;;;;17.88;70.81;99967.88;5057050;28;20052;-57
2022/06/27 12:06:14;;;;;;;6.05;3.63;;;;;;;17.90;70.84;99966.13;5056773;28;20079;-55
2022/06/27 12:09:02;;;;;;;9.60;4.25;;;;;;;17.90;70.90;99958.25;5056290;28;20056;-56
2022/06/27 12:11:55;;;;;;;6.00;3.40;;;;;;;17.90;70.92;99952.16;5041425;28;20098;-56
2022/06/27 12:14:48;;;;;;;7.05;3.63;;;;;;;17.92;70.58;99966.06;5056327;28;20519;-56
2022/06/27 12:17:39;;;;;;;7.45;3.60;;;;;;;17.92;70.76;99971.31;5041359;28;20048;-58
2022/06/27 12:20:26;;;;;;;5.70;3.50;;;;;;;17.92;70.84;99982.69;5040982;28;20060;-57
2022/06/27 12:23:10;;;;;;;7.85;3.97;;;;;;;17.92;70.71;99984.44;5040798;28;20400;-57
2022/06/27 12:25:55;;;;;;;5.72;3.55;;;;;;;17.92;70.63;99998.41;5056311;28;20127;-56
2022/06/27 12:28:42;;;;;;;9.02;2.85;;;;;;;17.87;70.24;100005.47;5055853;28;20052;-56
2022/06/27 12:31:26;;;;;;;5.65;2.65;;;;;;;17.79;70.36;100025.69;5041398;28;20064;-54
2022/06/27 12:34:10;;;;;;;;;;;;;;;17.72;70.27;100035.41;5041348;28;20040;-55
2022/06/27 12:36:54;;;;;;;4.93;2.30;;;;;;;17.70;70.34;100059.88;5056160;28;20295;-55
2022/06/27 12:39:38;;;;;;;12.45;2.55;;;;;;;17.60;70.30;100048.66;5040513;28;20102;-55
2022/06/27 12:42:22;;;;;;;4.07;2.00;;;;;;;17.56;70.35;100055.69;5056137;28;20519;-55
2022/06/27 12:45:07;;;;;;;4.03;2.20;;;;;;;17.55;70.36;100060.97;5055747;28;20055;-55
2022/06/27 12:47:51;;;;;;;4.30;1.90;;;;;;;17.50;70.62;100064.50;5040369;28;20052;-56
2022/06/27 12:50:36;;;;;;;6.65;2.00;;;;;;;17.50;70.87;100071.50;5055170;28;20099;-55
2022/06/27 12:53:20;;;;;;;1.65;1.52;;;;;;;17.49;71.13;100073.25;5040782;28;20048;-55
2022/06/27 12:56:05;;;;;;;2.60;1.83;;;;;;;17.50;71.04;100095.09;5055123;28;20047;-55
2022/06/27 12:58:49;;;;;;;3.72;1.77;;;;;;;17.53;70.88;100107.28;5039922;28;20047;-57
2022/06/27 13:01:32;;;;;;;3.15;1.70;;;;;;;17.52;71.44;100122.09;5055332;28;20051;-57
2022/06/27 13:04:16;;;;;;;2.22;2.03;;;;;;;17.53;71.14;100118.59;5055445;28;20043;-56
2022/06/27 13:07:00;;;;;;;4.93;2.53;;;;;;;17.52;71.41;100137.81;5055379;28;20126;-56